sensor_id;sensor_type;location;lat;lon;timestamp;pressure;altitude;pressure_sealevel;temperature;humidity
58967;BME280;44744;51.894;5.080;2023-04-07T00:00:47;101605.23;;;7.87;100.00
58967;BME280;44744;51.894;5.080;2023-04-07T00:01:47;101604.39;;;7.86;100.00
58967;BME280;44744;51.894;5.080;2023-04-07T00:02:47;101606.74;;;7.84;100.00
58967;BME280;44744;51.894;5.080;2023-04-07T00:03:48;101607.27;;;7.84;100.00
58967;BME280;44744;51.894;5.080;2023-04-07T00:04:48;101610.98;;;7.83;100.00
58967;BME280;44744;51.894;5.080;2023-04-07T00:05:48;101608.71;;;7.83;100.00
58967;BME280;44744;51.894;5.080;2023-04-07T00:06:49;101605.38;;;7.83;100.00
58967;BME280;44744;51.894;5.080;2023-04-07T00:07:49;101607.34;;;7.82;100.00
58967;BME280;44744;51.894;5.080;2023-04-07T00:08:49;101610.52;;;7.82;100.00
58967;BME280;44744;51.894;5.080;2023-04-07T00:09:50;101610.33;;;7.82;100.00
58967;BME280;44744;51.894;5.080;2023-04-07T00:10:50;101611.21;;;7.82;100.00
58967;BME280;44744;51.894;5.080;2023-04-07T00:11:50;101615.25;;;7.82;100.00
58967;BME280;44744;51.894;5.080;2023-04-07T00:12:51;101615.23;;;7.83;100.00
58967;BME280;44744;51.894;5.080;2023-04-07T00:13:52;101618.73;;;7.83;100.00
58967;BME280;44744;51.894;5.080;2023-04-07T00:14:53;101617.34;;;7.83;100.00
58967;BME280;44744;51.894;5.080;2023-04-07T00:15:53;101619.08;;;7.84;100.00
58967;BME280;44744;51.894;5.080;2023-04-07T00:16:53;101618.21;;;7.83;100.00
58967;BME280;44744;51.894;5.080;2023-04-07T00:17:53;101617.19;;;7.82;100.00
58967;BME280;44744;51.894;5.080;2023-04-07T00:18:54;101617.51;;;7.83;100.00
58967;BME280;44744;51.894;5.080;2023-04-07T00:19:54;101615.77;;;7.82;100.00
58967;BME280;44744;51.894;5.080;2023-04-07T00:20:54;101616.98;;;7.83;100.00
58967;BME280;44744;51.894;5.080;2023-04-07T00:21:55;101616.11;;;7.83;100.00
58967;BME280;44744;51.894;5.080;2023-04-07T00:22:55;101617.50;;;7.84;100.00
58967;BME280;44744;51.894;5.080;2023-04-07T00:23:55;101617.34;;;7.83;100.00
58967;BME280;44744;51.894;5.080;2023-04-07T00:24:55;101619.63;;;7.83;100.00
58967;BME280;44744;51.894;5.080;2023-04-07T00:25:56;101622.81;;;7.83;100.00
58967;BME280;44744;51.894;5.080;2023-04-07T00:26:56;101620.70;;;7.82;100.00
58967;BME280;44744;51.894;5.080;2023-04-07T00:27:56;101623.69;;;7.82;100.00
58967;BME280;44744;51.894;5.080;2023-04-07T00:28:57;101627.17;;;7.84;100.00
58967;BME280;44744;51.894;5.080;2023-04-07T00:29:58;101626.13;;;7.83;100.00
58967;BME280;44744;51.894;5.080;2023-04-07T00:30:58;101624.90;;;7.83;100.00
58967;BME280;44744;51.894;5.080;2023-04-07T00:31:58;101624.25;;;7.82;100.00
58967;BME280;44744;51.894;5.080;2023-04-07T00:32:59;101625.47;;;7.82;100.00
58967;BME280;44744;51.894;5.080;2023-04-07T00:33:59;101624.81;;;7.80;100.00
58967;BME280;44744;51.894;5.080;2023-04-07T00:34:59;101628.19;;;7.80;100.00
58967;BME280;44744;51.894;5.080;2023-04-07T00:35:59;101625.09;;;7.77;100.00
58967;BME280;44744;51.894;5.080;2023-04-07T00:37:00;101623.89;;;7.76;100.00
58967;BME280;44744;51.894;5.080;2023-04-07T00:38:00;101625.46;;;7.76;100.00
58967;BME280;44744;51.894;5.080;2023-04-07T00:39:00;101624.93;;;7.76;100.00
58967;BME280;44744;51.894;5.080;2023-04-07T00:40:00;101626.54;;;7.76;100.00
58967;BME280;44744;51.894;5.080;2023-04-07T00:41:01;101623.90;;;7.76;100.00
58967;BME280;44744;51.894;5.080;2023-04-07T00:42:02;101625.42;;;7.78;100.00
58967;BME280;44744;51.894;5.080;2023-04-07T00:43:03;101627.83;;;7.80;100.00
58967;BME280;44744;51.894;5.080;2023-04-07T00:44:03;101625.88;;;7.80;100.00
58967;BME280;44744;51.894;5.080;2023-04-07T00:45:04;101624.30;;;7.80;100.00
58967;BME280;44744;51.894;5.080;2023-04-07T00:46:04;101623.40;;;7.80;100.00
58967;BME280;44744;51.894;5.080;2023-04-07T00:47:04;101622.66;;;7.81;100.00
58967;BME280;44744;51.894;5.080;2023-04-07T00:48:05;101626.40;;;7.81;100.00
58967;BME280;44744;51.894;5.080;2023-04-07T00:49:06;101622.55;;;7.80;100.00
58967;BME280;44744;51.894;5.080;2023-04-07T00:50:07;101621.84;;;7.80;100.00
58967;BME280;44744;51.894;5.080;2023-04-07T00:51:07;101622.38;;;7.79;100.00
58967;BME280;44744;51.894;5.080;2023-04-07T00:52:11;101622.37;;;7.80;100.00
58967;BME280;44744;51.894;5.080;2023-04-07T00:53:11;101619.02;;;7.79;100.00
58967;BME280;44744;51.894;5.080;2023-04-07T00:54:15;101622.89;;;7.80;100.00
58967;BME280;44744;51.894;5.080;2023-04-07T00:55:17;101623.08;;;7.80;100.00
58967;BME280;44744;51.894;5.080;2023-04-07T00:56:17;101622.55;;;7.80;100.00
58967;BME280;44744;51.894;5.080;2023-04-07T00:57:18;101619.20;;;7.80;100.00
58967;BME280;44744;51.894;5.080;2023-04-07T00:58:19;101617.59;;;7.81;100.00
58967;BME280;44744;51.894;5.080;2023-04-07T00:59:19;101619.89;;;7.80;100.00
58967;BME280;44744;51.894;5.080;2023-04-07T01:00:20;101614.27;;;7.80;100.00
58967;BME280;44744;51.894;5.080;2023-04-07T01:01:29;101616.38;;;7.79;100.00
58967;BME280;44744;51.894;5.080;2023-04-07T01:02:41;101613.17;;;7.81;100.00
58967;BME280;44744;51.894;5.080;2023-04-07T01:03:56;101617.41;;;7.81;100.00
58967;BME280;44744;51.894;5.080;2023-04-07T01:06:05;101612.45;;;7.82;100.00
58967;BME280;44744;51.894;5.080;2023-04-07T01:07:26;101616.31;;;7.82;100.00
58967;BME280;44744;51.894;5.080;2023-04-07T01:09:40;101614.02;;;7.82;100.00
58967;BME280;44744;51.894;5.080;2023-04-07T01:10:51;101618.76;;;7.83;100.00
58967;BME280;44744;51.894;5.080;2023-04-07T01:11:58;101621.53;;;7.84;100.00
58967;BME280;44744;51.894;5.080;2023-04-07T01:13:22;101619.29;;;7.83;100.00
58967;BME280;44744;51.894;5.080;2023-04-07T01:14:28;101622.48;;;7.82;100.00
58967;BME280;44744;51.894;5.080;2023-04-07T01:15:32;101621.92;;;7.82;100.00
58967;BME280;44744;51.894;5.080;2023-04-07T01:16:34;101623.68;;;7.83;100.00
58967;BME280;44744;51.894;5.080;2023-04-07T01:17:44;101620.95;;;7.80;100.00
58967;BME280;44744;51.894;5.080;2023-04-07T01:18:50;101622.20;;;7.80;100.00
58967;BME280;44744;51.894;5.080;2023-04-07T01:19:58;101623.91;;;7.81;100.00
58967;BME280;44744;51.894;5.080;2023-04-07T01:21:07;101629.11;;;7.84;100.00
58967;BME280;44744;51.894;5.080;2023-04-07T01:22:14;101629.84;;;7.84;100.00
58967;BME280;44744;51.894;5.080;2023-04-07T01:27:32;101627.36;;;7.84;100.00
58967;BME280;44744;51.894;5.080;2023-04-07T01:28:48;101621.86;;;7.85;100.00
58967;BME280;44744;51.894;5.080;2023-04-07T01:29:55;101625.52;;;7.86;100.00
58967;BME280;44744;51.894;5.080;2023-04-07T01:30:57;101623.38;;;7.87;100.00
58967;BME280;44744;51.894;5.080;2023-04-07T01:31:59;101624.57;;;7.89;100.00
58967;BME280;44744;51.894;5.080;2023-04-07T01:33:01;101623.13;;;7.90;100.00
58967;BME280;44744;51.894;5.080;2023-04-07T01:34:03;101621.02;;;7.90;100.00
58967;BME280;44744;51.894;5.080;2023-04-07T01:35:04;101622.35;;;7.86;100.00
58967;BME280;44744;51.894;5.080;2023-04-07T01:36:06;101622.92;;;7.85;100.00
58967;BME280;44744;51.894;5.080;2023-04-07T01:37:08;101626.11;;;7.84;100.00
58967;BME280;44744;51.894;5.080;2023-04-07T01:38:09;101625.22;;;7.84;100.00
58967;BME280;44744;51.894;5.080;2023-04-07T01:39:11;101627.20;;;7.83;100.00
58967;BME280;44744;51.894;5.080;2023-04-07T01:40:12;101625.27;;;7.83;100.00
58967;BME280;44744;51.894;5.080;2023-04-07T01:41:13;101625.77;;;7.83;100.00
58967;BME280;44744;51.894;5.080;2023-04-07T01:42:15;101624.21;;;7.83;100.00
58967;BME280;44744;51.894;5.080;2023-04-07T01:43:17;101627.25;;;7.82;100.00
58967;BME280;44744;51.894;5.080;2023-04-07T01:44:18;101627.08;;;7.81;100.00
58967;BME280;44744;51.894;5.080;2023-04-07T01:45:19;101627.63;;;7.81;100.00
58967;BME280;44744;51.894;5.080;2023-04-07T01:46:20;101630.98;;;7.81;100.00
58967;BME280;44744;51.894;5.080;2023-04-07T01:47:20;101629.59;;;7.80;100.00
58967;BME280;44744;51.894;5.080;2023-04-07T01:48:20;101626.42;;;7.80;100.00
58967;BME280;44744;51.894;5.080;2023-04-07T01:49:22;101632.23;;;7.80;100.00
58967;BME280;44744;51.894;5.080;2023-04-07T01:50:24;101627.87;;;7.79;100.00
58967;BME280;44744;51.894;5.080;2023-04-07T01:51:26;101628.05;;;7.78;100.00
58967;BME280;44744;51.894;5.080;2023-04-07T01:52:28;101629.87;;;7.77;100.00
58967;BME280;44744;51.894;5.080;2023-04-07T01:53:29;101628.14;;;7.76;100.00
58967;BME280;44744;51.894;5.080;2023-04-07T01:54:29;101631.55;;;7.74;100.00
58967;BME280;44744;51.894;5.080;2023-04-07T01:55:31;101632.23;;;7.74;100.00
58967;BME280;44744;51.894;5.080;2023-04-07T01:56:31;101632.41;;;7.74;100.00
58967;BME280;44744;51.894;5.080;2023-04-07T01:57:32;101632.94;;;7.74;100.00
58967;BME280;44744;51.894;5.080;2023-04-07T01:58:32;101634.30;;;7.76;100.00
58967;BME280;44744;51.894;5.080;2023-04-07T01:59:32;101632.88;;;7.76;100.00
58967;BME280;44744;51.894;5.080;2023-04-07T02:00:33;101633.53;;;7.78;100.00
58967;BME280;44744;51.894;5.080;2023-04-07T02:01:33;101636.03;;;7.77;100.00
58967;BME280;44744;51.894;5.080;2023-04-07T02:02:35;101635.41;;;7.74;100.00
58967;BME280;44744;51.894;5.080;2023-04-07T02:03:46;101639.13;;;7.73;100.00
58967;BME280;44744;51.894;5.080;2023-04-07T02:04:59;101633.70;;;7.72;100.00
58967;BME280;44744;51.894;5.080;2023-04-07T02:06:08;101640.22;;;7.72;100.00
58967;BME280;44744;51.894;5.080;2023-04-07T02:07:18;101639.19;;;7.71;100.00
58967;BME280;44744;51.894;5.080;2023-04-07T02:08:20;101640.95;;;7.71;100.00
58967;BME280;44744;51.894;5.080;2023-04-07T02:09:24;101640.27;;;7.71;100.00
58967;BME280;44744;51.894;5.080;2023-04-07T02:10:28;101639.21;;;7.70;100.00
58967;BME280;44744;51.894;5.080;2023-04-07T02:11:30;101637.61;;;7.71;100.00
58967;BME280;44744;51.894;5.080;2023-04-07T02:12:31;101636.70;;;7.72;100.00
58967;BME280;44744;51.894;5.080;2023-04-07T02:13:34;101635.83;;;7.72;100.00
58967;BME280;44744;51.894;5.080;2023-04-07T02:14:36;101637.23;;;7.72;100.00
58967;BME280;44744;51.894;5.080;2023-04-07T02:15:38;101639.84;;;7.73;100.00
58967;BME280;44744;51.894;5.080;2023-04-07T02:16:41;101641.02;;;7.75;100.00
58967;BME280;44744;51.894;5.080;2023-04-07T02:17:45;101639.81;;;7.74;100.00
58967;BME280;44744;51.894;5.080;2023-04-07T02:18:46;101641.40;;;7.74;100.00
58967;BME280;44744;51.894;5.080;2023-04-07T02:19:49;101640.86;;;7.74;100.00
58967;BME280;44744;51.894;5.080;2023-04-07T02:20:51;101641.52;;;7.75;100.00
58967;BME280;44744;51.894;5.080;2023-04-07T02:21:51;101642.73;;;7.77;100.00
58967;BME280;44744;51.894;5.080;2023-04-07T02:22:53;101642.70;;;7.77;100.00
58967;BME280;44744;51.894;5.080;2023-04-07T02:23:53;101639.86;;;7.78;100.00
58967;BME280;44744;51.894;5.080;2023-04-07T02:24:53;101642.63;;;7.79;100.00
58967;BME280;44744;51.894;5.080;2023-04-07T02:25:56;101643.14;;;7.80;100.00
58967;BME280;44744;51.894;5.080;2023-04-07T02:26:57;101638.90;;;7.81;100.00
58967;BME280;44744;51.894;5.080;2023-04-07T02:27:58;101638.86;;;7.82;100.00
58967;BME280;44744;51.894;5.080;2023-04-07T02:28:58;101640.45;;;7.82;100.00
58967;BME280;44744;51.894;5.080;2023-04-07T02:30:00;101638.48;;;7.82;100.00
58967;BME280;44744;51.894;5.080;2023-04-07T02:31:00;101637.96;;;7.82;100.00
58967;BME280;44744;51.894;5.080;2023-04-07T02:32:01;101638.46;;;7.83;100.00
58967;BME280;44744;51.894;5.080;2023-04-07T02:33:01;101635.82;;;7.83;100.00
58967;BME280;44744;51.894;5.080;2023-04-07T02:34:01;101634.78;;;7.83;100.00
58967;BME280;44744;51.894;5.080;2023-04-07T02:35:02;101634.46;;;7.82;100.00
58967;BME280;44744;51.894;5.080;2023-04-07T02:36:03;101633.25;;;7.81;100.00
58967;BME280;44744;51.894;5.080;2023-04-07T02:37:03;101635.23;;;7.80;100.00
58967;BME280;44744;51.894;5.080;2023-04-07T02:38:03;101635.23;;;7.80;100.00
58967;BME280;44744;51.894;5.080;2023-04-07T02:39:03;101637.02;;;7.78;100.00
58967;BME280;44744;51.894;5.080;2023-04-07T02:40:04;101634.41;;;7.78;100.00
58967;BME280;44744;51.894;5.080;2023-04-07T02:41:08;101634.11;;;7.76;100.00
58967;BME280;44744;51.894;5.080;2023-04-07T02:42:08;101635.01;;;7.76;100.00
58967;BME280;44744;51.894;5.080;2023-04-07T02:43:08;101636.45;;;7.75;100.00
58967;BME280;44744;51.894;5.080;2023-04-07T02:44:08;101639.27;;;7.74;100.00
58967;BME280;44744;51.894;5.080;2023-04-07T02:45:09;101638.09;;;7.73;100.00
58967;BME280;44744;51.894;5.080;2023-04-07T02:46:10;101633.71;;;7.72;100.00
58967;BME280;44744;51.894;5.080;2023-04-07T02:47:10;101634.46;;;7.70;100.00
58967;BME280;44744;51.894;5.080;2023-04-07T02:48:11;101634.29;;;7.70;100.00
58967;BME280;44744;51.894;5.080;2023-04-07T02:49:11;101633.55;;;7.72;100.00
58967;BME280;44744;51.894;5.080;2023-04-07T02:50:11;101636.52;;;7.73;100.00
58967;BME280;44744;51.894;5.080;2023-04-07T02:51:13;101632.27;;;7.73;100.00
58967;BME280;44744;51.894;5.080;2023-04-07T02:52:13;101636.66;;;7.73;100.00
58967;BME280;44744;51.894;5.080;2023-04-07T02:53:14;101638.48;;;7.71;100.00
58967;BME280;44744;51.894;5.080;2023-04-07T02:54:14;101639.88;;;7.72;100.00
58967;BME280;44744;51.894;5.080;2023-04-07T02:55:15;101639.52;;;7.72;100.00
58967;BME280;44744;51.894;5.080;2023-04-07T02:56:16;101636.52;;;7.73;100.00
58967;BME280;44744;51.894;5.080;2023-04-07T02:57:16;101638.98;;;7.72;100.00
58967;BME280;44744;51.894;5.080;2023-04-07T02:58:16;101640.92;;;7.72;100.00
58967;BME280;44744;51.894;5.080;2023-04-07T02:59:16;101643.52;;;7.73;100.00
58967;BME280;44744;51.894;5.080;2023-04-07T03:00:17;101642.14;;;7.73;100.00
58967;BME280;44744;51.894;5.080;2023-04-07T03:01:17;101644.08;;;7.72;100.00
58967;BME280;44744;51.894;5.080;2023-04-07T03:02:17;101642.11;;;7.74;100.00
58967;BME280;44744;51.894;5.080;2023-04-07T03:03:18;101644.02;;;7.75;100.00
58967;BME280;44744;51.894;5.080;2023-04-07T03:04:18;101644.02;;;7.75;100.00
58967;BME280;44744;51.894;5.080;2023-04-07T03:05:18;101642.77;;;7.75;100.00
58967;BME280;44744;51.894;5.080;2023-04-07T03:06:19;101645.77;;;7.75;100.00
58967;BME280;44744;51.894;5.080;2023-04-07T03:07:19;101640.84;;;7.75;100.00
58967;BME280;44744;51.894;5.080;2023-04-07T03:08:19;101642.73;;;7.76;100.00
58967;BME280;44744;51.894;5.080;2023-04-07T03:09:19;101642.41;;;7.76;100.00
58967;BME280;44744;51.894;5.080;2023-04-07T03:10:20;101642.91;;;7.76;100.00
58967;BME280;44744;51.894;5.080;2023-04-07T03:11:20;101642.98;;;7.74;100.00
58967;BME280;44744;51.894;5.080;2023-04-07T03:12:20;101643.70;;;7.73;100.00
58967;BME280;44744;51.894;5.080;2023-04-07T03:13:20;101642.86;;;7.73;100.00
58967;BME280;44744;51.894;5.080;2023-04-07T03:14:21;101643.25;;;7.71;100.00
58967;BME280;44744;51.894;5.080;2023-04-07T03:15:21;101645.17;;;7.71;100.00
58967;BME280;44744;51.894;5.080;2023-04-07T03:16:22;101642.90;;;7.71;100.00
58967;BME280;44744;51.894;5.080;2023-04-07T03:17:22;101642.70;;;7.72;100.00
58967;BME280;44744;51.894;5.080;2023-04-07T03:18:22;101643.77;;;7.72;100.00
58967;BME280;44744;51.894;5.080;2023-04-07T03:19:23;101644.43;;;7.72;100.00
58967;BME280;44744;51.894;5.080;2023-04-07T03:20:23;101642.67;;;7.73;100.00
58967;BME280;44744;51.894;5.080;2023-04-07T03:21:23;101644.72;;;7.75;100.00
58967;BME280;44744;51.894;5.080;2023-04-07T03:22:23;101642.09;;;7.75;100.00
58967;BME280;44744;51.894;5.080;2023-04-07T03:23:24;101638.39;;;7.74;100.00
58967;BME280;44744;51.894;5.080;2023-04-07T03:24:24;101641.73;;;7.75;100.00
58967;BME280;44744;51.894;5.080;2023-04-07T03:25:24;101640.12;;;7.76;100.00
58967;BME280;44744;51.894;5.080;2023-04-07T03:26:25;101640.48;;;7.75;100.00
58967;BME280;44744;51.894;5.080;2023-04-07T03:27:31;101636.06;;;7.76;100.00
58967;BME280;44744;51.894;5.080;2023-04-07T03:28:31;101638.20;;;7.75;100.00
58967;BME280;44744;51.894;5.080;2023-04-07T03:29:31;101641.36;;;7.75;100.00
58967;BME280;44744;51.894;5.080;2023-04-07T03:30:32;101642.21;;;7.76;100.00
58967;BME280;44744;51.894;5.080;2023-04-07T03:31:32;101638.33;;;7.77;100.00
58967;BME280;44744;51.894;5.080;2023-04-07T03:32:32;101640.79;;;7.77;100.00
58967;BME280;44744;51.894;5.080;2023-04-07T03:33:32;101641.44;;;7.78;100.00
58967;BME280;44744;51.894;5.080;2023-04-07T03:34:33;101645.49;;;7.78;100.00
58967;BME280;44744;51.894;5.080;2023-04-07T03:35:33;101643.52;;;7.79;100.00
58967;BME280;44744;51.894;5.080;2023-04-07T03:36:33;101644.94;;;7.79;100.00
58967;BME280;44744;51.894;5.080;2023-04-07T03:37:34;101642.84;;;7.79;100.00
58967;BME280;44744;51.894;5.080;2023-04-07T03:38:34;101642.48;;;7.79;100.00
58967;BME280;44744;51.894;5.080;2023-04-07T03:39:34;101640.34;;;7.79;100.00
58967;BME280;44744;51.894;5.080;2023-04-07T03:40:34;101639.65;;;7.79;100.00
58967;BME280;44744;51.894;5.080;2023-04-07T03:41:35;101644.73;;;7.80;100.00
58967;BME280;44744;51.894;5.080;2023-04-07T03:42:35;101639.67;;;7.78;100.00
58967;BME280;44744;51.894;5.080;2023-04-07T03:43:35;101640.20;;;7.78;100.00
58967;BME280;44744;51.894;5.080;2023-04-07T03:44:36;101638.31;;;7.77;100.00
58967;BME280;44744;51.894;5.080;2023-04-07T03:45:36;101640.64;;;7.76;100.00
58967;BME280;44744;51.894;5.080;2023-04-07T03:46:36;101641.59;;;7.73;100.00
58967;BME280;44744;51.894;5.080;2023-04-07T03:47:36;101639.18;;;7.72;100.00
58967;BME280;44744;51.894;5.080;2023-04-07T03:48:37;101638.00;;;7.70;100.00
58967;BME280;44744;51.894;5.080;2023-04-07T03:49:37;101639.08;;;7.69;100.00
58967;BME280;44744;51.894;5.080;2023-04-07T03:50:38;101642.63;;;7.68;100.00
58967;BME280;44744;51.894;5.080;2023-04-07T03:51:39;101639.33;;;7.66;100.00
58967;BME280;44744;51.894;5.080;2023-04-07T03:52:39;101641.49;;;7.65;100.00
58967;BME280;44744;51.894;5.080;2023-04-07T03:53:39;101641.76;;;7.62;100.00
58967;BME280;44744;51.894;5.080;2023-04-07T03:54:39;101640.77;;;7.60;100.00
58967;BME280;44744;51.894;5.080;2023-04-07T03:55:40;101643.46;;;7.58;100.00
58967;BME280;44744;51.894;5.080;2023-04-07T03:56:40;101644.05;;;7.56;100.00
58967;BME280;44744;51.894;5.080;2023-04-07T03:57:40;101648.45;;;7.56;100.00
58967;BME280;44744;51.894;5.080;2023-04-07T03:58:41;101648.65;;;7.55;100.00
58967;BME280;44744;51.894;5.080;2023-04-07T03:59:41;101647.61;;;7.54;100.00
58967;BME280;44744;51.894;5.080;2023-04-07T04:00:41;101646.58;;;7.54;100.00
58967;BME280;44744;51.894;5.080;2023-04-07T04:01:42;101648.56;;;7.52;100.00
58967;BME280;44744;51.894;5.080;2023-04-07T04:02:42;101651.55;;;7.52;100.00
58967;BME280;44744;51.894;5.080;2023-04-07T04:03:42;101646.84;;;7.51;100.00
58967;BME280;44744;51.894;5.080;2023-04-07T04:04:43;101647.04;;;7.50;100.00
58967;BME280;44744;51.894;5.080;2023-04-07T04:05:43;101649.51;;;7.49;100.00
58967;BME280;44744;51.894;5.080;2023-04-07T04:06:45;101647.11;;;7.48;100.00
58967;BME280;44744;51.894;5.080;2023-04-07T04:07:48;101647.09;;;7.48;100.00
58967;BME280;44744;51.894;5.080;2023-04-07T04:08:51;101649.42;;;7.47;100.00
58967;BME280;44744;51.894;5.080;2023-04-07T04:09:51;101646.27;;;7.46;100.00
58967;BME280;44744;51.894;5.080;2023-04-07T04:10:52;101647.14;;;7.46;100.00
58967;BME280;44744;51.894;5.080;2023-04-07T04:11:52;101645.23;;;7.45;100.00
58967;BME280;44744;51.894;5.080;2023-04-07T04:12:52;101645.41;;;7.45;100.00
58967;BME280;44744;51.894;5.080;2023-04-07T04:13:53;101644.38;;;7.44;100.00
58967;BME280;44744;51.894;5.080;2023-04-07T04:14:53;101648.09;;;7.44;100.00
58967;BME280;44744;51.894;5.080;2023-04-07T04:15:53;101649.69;;;7.44;100.00
58967;BME280;44744;51.894;5.080;2023-04-07T04:16:54;101653.19;;;7.44;100.00
58967;BME280;44744;51.894;5.080;2023-04-07T04:17:54;101651.74;;;7.45;100.00
58967;BME280;44744;51.894;5.080;2023-04-07T04:18:54;101653.13;;;7.46;100.00
58967;BME280;44744;51.894;5.080;2023-04-07T04:19:58;101652.23;;;7.46;100.00
58967;BME280;44744;51.894;5.080;2023-04-07T04:20:58;101653.48;;;7.46;100.00
58967;BME280;44744;51.894;5.080;2023-04-07T04:21:58;101654.39;;;7.45;100.00
58967;BME280;44744;51.894;5.080;2023-04-07T04:22:58;101657.02;;;7.45;100.00
58967;BME280;44744;51.894;5.080;2023-04-07T04:23:59;101654.75;;;7.45;100.00
58967;BME280;44744;51.894;5.080;2023-04-07T04:24:59;101654.73;;;7.45;100.00
58967;BME280;44744;51.894;5.080;2023-04-07T04:26:00;101657.91;;;7.45;100.00
58967;BME280;44744;51.894;5.080;2023-04-07T04:27:00;101655.95;;;7.46;100.00
58967;BME280;44744;51.894;5.080;2023-04-07T04:28:00;101654.89;;;7.46;100.00
58967;BME280;44744;51.894;5.080;2023-04-07T04:29:03;101657.51;;;7.47;100.00
58967;BME280;44744;51.894;5.080;2023-04-07T04:30:04;101657.19;;;7.45;100.00
58967;BME280;44744;51.894;5.080;2023-04-07T04:31:04;101657.91;;;7.45;100.00
58967;BME280;44744;51.894;5.080;2023-04-07T04:32:07;101660.17;;;7.46;100.00
58967;BME280;44744;51.894;5.080;2023-04-07T04:33:07;101660.17;;;7.46;100.00
58967;BME280;44744;51.894;5.080;2023-04-07T04:34:07;101662.30;;;7.45;100.00
58967;BME280;44744;51.894;5.080;2023-04-07T04:35:08;101663.02;;;7.45;100.00
58967;BME280;44744;51.894;5.080;2023-04-07T04:36:09;101664.94;;;7.45;100.00
58967;BME280;44744;51.894;5.080;2023-04-07T04:37:09;101667.38;;;7.46;100.00
58967;BME280;44744;51.894;5.080;2023-04-07T04:38:09;101666.48;;;7.47;100.00
58967;BME280;44744;51.894;5.080;2023-04-07T04:39:10;101667.04;;;7.46;100.00
58967;BME280;44744;51.894;5.080;2023-04-07T04:40:10;101667.73;;;7.46;100.00
58967;BME280;44744;51.894;5.080;2023-04-07T04:41:10;101669.85;;;7.46;100.00
58967;BME280;44744;51.894;5.080;2023-04-07T04:42:11;101668.98;;;7.45;100.00
58967;BME280;44744;51.894;5.080;2023-04-07T04:43:11;101669.34;;;7.45;100.00
58967;BME280;44744;51.894;5.080;2023-04-07T04:44:11;101668.96;;;7.46;100.00
58967;BME280;44744;51.894;5.080;2023-04-07T04:45:15;101670.38;;;7.46;100.00
58967;BME280;44744;51.894;5.080;2023-04-07T04:46:16;101671.95;;;7.47;100.00
58967;BME280;44744;51.894;5.080;2023-04-07T04:47:16;101670.91;;;7.46;100.00
58967;BME280;44744;51.894;5.080;2023-04-07T04:48:16;101672.48;;;7.46;100.00
58967;BME280;44744;51.894;5.080;2023-04-07T04:49:17;101674.95;;;7.46;100.00
58967;BME280;44744;51.894;5.080;2023-04-07T04:50:17;101676.52;;;7.47;100.00
58967;BME280;44744;51.894;5.080;2023-04-07T04:51:17;101675.25;;;7.48;100.00
58967;BME280;44744;51.894;5.080;2023-04-07T04:52:18;101679.23;;;7.50;100.00
58967;BME280;44744;51.894;5.080;2023-04-07T04:53:18;101680.83;;;7.50;100.00
58967;BME280;44744;51.894;5.080;2023-04-07T04:54:18;101680.81;;;7.50;100.00
58967;BME280;44744;51.894;5.080;2023-04-07T04:55:19;101681.30;;;7.52;100.00
58967;BME280;44744;51.894;5.080;2023-04-07T04:56:19;101685.85;;;7.53;100.00
58967;BME280;44744;51.894;5.080;2023-04-07T04:57:19;101689.02;;;7.53;100.00
58967;BME280;44744;51.894;5.080;2023-04-07T04:58:20;101685.99;;;7.54;100.00
58967;BME280;44744;51.894;5.080;2023-04-07T04:59:20;101687.45;;;7.52;100.00
58967;BME280;44744;51.894;5.080;2023-04-07T05:00:20;101687.29;;;7.52;100.00
58967;BME280;44744;51.894;5.080;2023-04-07T05:01:21;101688.70;;;7.51;100.00
58967;BME280;44744;51.894;5.080;2023-04-07T05:02:21;101689.27;;;7.50;100.00
58967;BME280;44744;51.894;5.080;2023-04-07T05:03:31;101690.30;;;7.51;100.00
58967;BME280;44744;51.894;5.080;2023-04-07T05:04:44;101689.83;;;7.49;100.00
58967;BME280;44744;51.894;5.080;2023-04-07T05:06:34;101693.35;;;7.49;100.00
58967;BME280;44744;51.894;5.080;2023-04-07T05:07:34;101692.39;;;7.46;100.00
58967;BME280;44744;51.894;5.080;2023-04-07T05:08:35;101690.14;;;7.44;100.00
58967;BME280;44744;51.894;5.080;2023-04-07T05:09:35;101691.71;;;7.45;100.00
58967;BME280;44744;51.894;5.080;2023-04-07T05:10:38;101693.11;;;7.45;100.00
58967;BME280;44744;51.894;5.080;2023-04-07T05:11:40;101689.58;;;7.45;100.00
58967;BME280;44744;51.894;5.080;2023-04-07T05:12:40;101692.23;;;7.45;100.00
58967;BME280;44744;51.894;5.080;2023-04-07T05:13:40;101689.58;;;7.46;100.00
58967;BME280;44744;51.894;5.080;2023-04-07T05:14:40;101690.97;;;7.46;100.00
58967;BME280;44744;51.894;5.080;2023-04-07T05:15:41;101690.96;;;7.46;100.00
58967;BME280;44744;51.894;5.080;2023-04-07T05:16:41;101690.27;;;7.46;100.00
58967;BME280;44744;51.894;5.080;2023-04-07T05:17:41;101693.36;;;7.48;100.00
58967;BME280;44744;51.894;5.080;2023-04-07T05:18:41;101690.55;;;7.49;100.00
58967;BME280;44744;51.894;5.080;2023-04-07T05:19:42;101692.45;;;7.50;100.00
58967;BME280;44744;51.894;5.080;2023-04-07T05:20:43;101693.13;;;7.51;100.00
58967;BME280;44744;51.894;5.080;2023-04-07T05:21:43;101696.25;;;7.52;100.00
58967;BME280;44744;51.894;5.080;2023-04-07T05:22:44;101697.09;;;7.54;100.00
58967;BME280;44744;51.894;5.080;2023-04-07T05:23:44;101697.02;;;7.57;100.00
58967;BME280;44744;51.894;5.080;2023-04-07T05:24:45;101702.26;;;7.58;100.00
58967;BME280;44744;51.894;5.080;2023-04-07T05:25:46;101702.23;;;7.59;100.00
58967;BME280;44744;51.894;5.080;2023-04-07T05:26:46;101704.81;;;7.61;100.00
58967;BME280;44744;51.894;5.080;2023-04-07T05:27:46;101709.49;;;7.63;100.00
58967;BME280;44744;51.894;5.080;2023-04-07T05:28:46;101707.04;;;7.63;100.00